Аэропорт: Актау. Актау

ICAO: UATE

METAR:
2019-09-21 16:00:00
UATE 211600Z 35013MPS 9999 BKN036CB 15/10 Q1012 R30/0///70 NOSIG RMK QFE757/1010
METAR:
2019-09-21 11:03:00
TAF UATE 211103Z 2112/2212 35012G18MPS 9999 BKN015 BKN040CB TX16/2210Z TN10/2201Z TEMPO 2114/2122 -SHRA